sensor_id;sensor_type;location;lat;lon;timestamp;pressure;altitude;pressure_sealevel;temperature;humidity
63946;BME280;50122;56.330;43.838;2022-12-18T14:46:50;100351.31;;;-6.07;100.00
63946;BME280;50122;56.330;43.838;2022-12-18T14:51:49;100354.81;;;-6.04;100.00
63946;BME280;50122;56.330;43.838;2022-12-18T14:54:19;100371.28;;;-5.96;100.00
63946;BME280;50122;56.330;43.838;2022-12-18T14:57:00;100364.59;;;-5.89;100.00
63946;BME280;50122;56.330;43.838;2022-12-18T14:59:28;100366.44;;;-5.83;100.00
63946;BME280;50122;56.330;43.838;2022-12-18T15:04:42;100376.22;;;-5.68;100.00
63946;BME280;50122;56.330;43.838;2022-12-18T15:07:16;100372.22;;;-5.57;100.00
63946;BME280;50122;56.330;43.838;2022-12-18T15:15:03;100383.56;;;-5.49;100.00
63946;BME280;50122;56.330;43.838;2022-12-18T15:17:31;100393.97;;;-5.44;100.00
63946;BME280;50122;56.330;43.838;2022-12-18T15:20:09;100406.16;;;-5.37;100.00
63946;BME280;50122;56.330;43.838;2022-12-18T15:22:36;100411.34;;;-5.35;100.00
63946;BME280;50122;56.330;43.838;2022-12-18T15:25:32;100402.81;;;-5.33;100.00
63946;BME280;50122;56.330;43.838;2022-12-18T15:28:00;100407.13;;;-5.30;100.00
63946;BME280;50122;56.330;43.838;2022-12-18T15:30:31;100402.84;;;-5.31;100.00
63946;BME280;50122;56.330;43.838;2022-12-18T15:33:29;100409.81;;;-5.27;100.00
63946;BME280;50122;56.330;43.838;2022-12-18T15:36:22;100416.69;;;-5.26;100.00
63946;BME280;50122;56.330;43.838;2022-12-18T15:38:55;100417.47;;;-5.29;100.00
63946;BME280;50122;56.330;43.838;2022-12-18T15:41:33;100410.34;;;-5.41;100.00
63946;BME280;50122;56.330;43.838;2022-12-18T15:44:02;100436.44;;;-5.27;100.00
63946;BME280;50122;56.330;43.838;2022-12-18T15:46:30;100432.13;;;-5.26;100.00
63946;BME280;50122;56.330;43.838;2022-12-18T15:49:02;100415.00;;;-5.26;100.00
63946;BME280;50122;56.330;43.838;2022-12-18T15:54:00;100404.56;;;-5.30;100.00
63946;BME280;50122;56.330;43.838;2022-12-18T15:56:27;100403.66;;;-5.32;100.00
63946;BME280;50122;56.330;43.838;2022-12-18T15:59:18;100405.41;;;-5.31;100.00
63946;BME280;50122;56.330;43.838;2022-12-18T16:01:48;100416.69;;;-5.26;100.00
63946;BME280;50122;56.330;43.838;2022-12-18T16:04:17;100408.06;;;-5.28;100.00
63946;BME280;50122;56.330;43.838;2022-12-18T16:06:46;100402.81;;;-5.33;100.00
63946;BME280;50122;56.330;43.838;2022-12-18T16:09:38;100423.53;;;-5.27;100.00
63946;BME280;50122;56.330;43.838;2022-12-18T16:12:20;100442.34;;;-5.31;100.00
63946;BME280;50122;56.330;43.838;2022-12-18T16:14:50;100438.00;;;-5.32;100.00
63946;BME280;50122;56.330;43.838;2022-12-18T16:17:19;100438.94;;;-5.30;100.00
63946;BME280;50122;56.330;43.838;2022-12-18T16:19:45;100442.28;;;-5.34;100.00
63946;BME280;50122;56.330;43.838;2022-12-18T16:22:23;100457.00;;;-5.28;100.00
63946;BME280;50122;56.330;43.838;2022-12-18T16:24:51;100465.59;;;-5.28;100.00
63946;BME280;50122;56.330;43.838;2022-12-18T16:27:22;100474.16;;;-5.29;100.00
63946;BME280;50122;56.330;43.838;2022-12-18T16:29:55;100460.41;;;-5.29;100.00
63946;BME280;50122;56.330;43.838;2022-12-18T16:32:22;100471.53;;;-5.30;100.00
63946;BME280;50122;56.330;43.838;2022-12-18T16:34:49;100478.31;;;-5.35;100.00
63946;BME280;50122;56.330;43.838;2022-12-18T16:37:19;100480.91;;;-5.34;100.00
63946;BME280;50122;56.330;43.838;2022-12-18T16:39:48;100486.03;;;-5.35;100.00
63946;BME280;50122;56.330;43.838;2022-12-18T16:42:17;100487.84;;;-5.31;100.00
63946;BME280;50122;56.330;43.838;2022-12-18T16:44:48;100486.91;;;-5.35;100.00
63946;BME280;50122;56.330;43.838;2022-12-18T16:47:15;100498.13;;;-5.33;100.00
63946;BME280;50122;56.330;43.838;2022-12-18T16:49:42;100486.81;;;-5.38;100.00
63946;BME280;50122;56.330;43.838;2022-12-18T16:52:11;100518.00;;;-5.27;100.00
63946;BME280;50122;56.330;43.838;2022-12-18T16:54:37;100470.91;;;-5.56;100.00
63946;BME280;50122;56.330;43.838;2022-12-18T16:57:04;100532.47;;;-5.32;100.00
63946;BME280;50122;56.330;43.838;2022-12-18T16:59:31;100531.66;;;-5.31;100.00
63946;BME280;50122;56.330;43.838;2022-12-18T17:01:58;100509.91;;;-5.43;100.00
63946;BME280;50122;56.330;43.838;2022-12-18T17:04:25;100540.13;;;-5.35;100.00
63946;BME280;50122;56.330;43.838;2022-12-18T17:06:52;100556.53;;;-5.32;100.00
63946;BME280;50122;56.330;43.838;2022-12-18T17:09:20;100554.81;;;-5.33;100.00
63946;BME280;50122;56.330;43.838;2022-12-18T17:11:54;100560.66;;;-5.38;100.00
63946;BME280;50122;56.330;43.838;2022-12-18T17:14:23;100561.41;;;-5.43;100.00
63946;BME280;50122;56.330;43.838;2022-12-18T17:16:50;100553.53;;;-5.49;100.00
63946;BME280;50122;56.330;43.838;2022-12-18T17:19:39;100565.53;;;-5.49;100.00
63946;BME280;50122;56.330;43.838;2022-12-18T17:22:05;100569.91;;;-5.47;100.00
63946;BME280;50122;56.330;43.838;2022-12-18T17:24:34;100574.19;;;-5.47;100.00
63946;BME280;50122;56.330;43.838;2022-12-18T17:27:02;100586.84;;;-5.55;100.00
63946;BME280;50122;56.330;43.838;2022-12-18T17:29:31;100580.75;;;-5.59;100.00
63946;BME280;50122;56.330;43.838;2022-12-18T17:32:09;100586.69;;;-5.61;100.00
63946;BME280;50122;56.330;43.838;2022-12-18T17:34:35;100593.50;;;-5.63;100.00
63946;BME280;50122;56.330;43.838;2022-12-18T17:37:03;100597.81;;;-5.62;100.00
63946;BME280;50122;56.330;43.838;2022-12-18T17:39:30;100587.13;;;-5.78;100.00
63946;BME280;50122;56.330;43.838;2022-12-18T17:41:57;100595.78;;;-5.74;100.00
63946;BME280;50122;56.330;43.838;2022-12-18T17:44:24;100605.38;;;-5.68;100.00
63946;BME280;50122;56.330;43.838;2022-12-18T17:46:51;100613.91;;;-5.69;100.00
63946;BME280;50122;56.330;43.838;2022-12-18T17:49:37;100613.06;;;-5.70;100.00
63946;BME280;50122;56.330;43.838;2022-12-18T17:52:44;100621.41;;;-5.79;100.00
63946;BME280;50122;56.330;43.838;2022-12-18T17:55:20;100639.50;;;-5.76;100.00
63946;BME280;50122;56.330;43.838;2022-12-18T17:57:47;100630.00;;;-5.78;100.00
63946;BME280;50122;56.330;43.838;2022-12-18T18:00:14;100639.38;;;-5.80;100.00
63946;BME280;50122;56.330;43.838;2022-12-18T18:02:40;100643.56;;;-5.84;100.00
63946;BME280;50122;56.330;43.838;2022-12-18T18:05:08;100647.69;;;-5.90;100.00
63946;BME280;50122;56.330;43.838;2022-12-18T18:07:37;100657.16;;;-5.88;100.00
63946;BME280;50122;56.330;43.838;2022-12-18T18:12:49;100677.63;;;-5.93;100.00
63946;BME280;50122;56.330;43.838;2022-12-18T18:15:34;100685.34;;;-5.93;100.00
63946;BME280;50122;56.330;43.838;2022-12-18T18:18:03;100677.53;;;-5.97;100.00
63946;BME280;50122;56.330;43.838;2022-12-18T18:20:30;100683.44;;;-6.00;100.00
63946;BME280;50122;56.330;43.838;2022-12-18T18:23:00;100689.50;;;-5.99;100.00
63946;BME280;50122;56.330;43.838;2022-12-18T18:25:30;100657.06;;;-6.21;100.00
63946;BME280;50122;56.330;43.838;2022-12-18T18:28:02;100681.72;;;-6.01;100.00
63946;BME280;50122;56.330;43.838;2022-12-18T18:30:35;100688.66;;;-5.98;100.00
63946;BME280;50122;56.330;43.838;2022-12-18T18:33:02;100698.03;;;-6.00;100.00
63946;BME280;50122;56.330;43.838;2022-12-18T18:35:51;100693.56;;;-6.06;100.00
63946;BME280;50122;56.330;43.838;2022-12-18T18:38:20;100691.84;;;-6.05;100.00
63946;BME280;50122;56.330;43.838;2022-12-18T18:40:47;100698.84;;;-6.01;100.00
63946;BME280;50122;56.330;43.838;2022-12-18T18:43:13;100706.47;;;-6.04;100.00
63946;BME280;50122;56.330;43.838;2022-12-18T18:45:43;100707.34;;;-6.04;100.00
63946;BME280;50122;56.330;43.838;2022-12-18T18:48:13;100706.44;;;-6.06;100.00
63946;BME280;50122;56.330;43.838;2022-12-18T18:50:39;100696.00;;;-6.11;100.00
63946;BME280;50122;56.330;43.838;2022-12-18T18:53:25;100722.66;;;-6.08;100.00
63946;BME280;50122;56.330;43.838;2022-12-18T18:56:03;100711.31;;;-6.15;100.00
63946;BME280;50122;56.330;43.838;2022-12-18T18:58:50;100731.00;;;-6.16;100.00
63946;BME280;50122;56.330;43.838;2022-12-18T19:01:21;100680.00;;;-6.56;100.00
63946;BME280;50122;56.330;43.838;2022-12-18T19:03:56;100744.59;;;-6.20;100.00
63946;BME280;50122;56.330;43.838;2022-12-18T19:06:25;100737.69;;;-6.22;100.00
63946;BME280;50122;56.330;43.838;2022-12-18T19:08:55;100747.06;;;-6.23;100.00
63946;BME280;50122;56.330;43.838;2022-12-18T19:11:24;100743.50;;;-6.28;100.00
63946;BME280;50122;56.330;43.838;2022-12-18T19:14:12;100762.56;;;-6.21;100.00
63946;BME280;50122;56.330;43.838;2022-12-18T19:16:40;100750.47;;;-6.24;100.00
63946;BME280;50122;56.330;43.838;2022-12-18T19:19:07;100741.75;;;-6.29;100.00
63946;BME280;50122;56.330;43.838;2022-12-18T19:21:37;100724.91;;;-6.47;100.00
63946;BME280;50122;56.330;43.838;2022-12-18T19:24:05;100756.59;;;-6.20;100.00
63946;BME280;50122;56.330;43.838;2022-12-18T19:26:34;100753.13;;;-6.22;100.00
63946;BME280;50122;56.330;43.838;2022-12-18T19:29:07;100746.03;;;-6.30;100.00
63946;BME280;50122;56.330;43.838;2022-12-18T19:31:39;100740.56;;;-6.39;100.00
63946;BME280;50122;56.330;43.838;2022-12-18T19:34:08;100742.38;;;-6.36;100.00
63946;BME280;50122;56.330;43.838;2022-12-18T19:36:37;100752.91;;;-6.29;100.00
63946;BME280;50122;56.330;43.838;2022-12-18T19:39:15;100763.22;;;-6.27;100.00
63946;BME280;50122;56.330;43.838;2022-12-18T19:41:44;100762.22;;;-6.32;100.00
63946;BME280;50122;56.330;43.838;2022-12-18T19:44:14;100771.75;;;-6.30;100.00
63946;BME280;50122;56.330;43.838;2022-12-18T19:46:41;100777.75;;;-6.29;100.00
63946;BME280;50122;56.330;43.838;2022-12-18T19:49:09;100796.56;;;-6.30;100.00
63946;BME280;50122;56.330;43.838;2022-12-18T19:51:37;100780.94;;;-6.36;100.00
63946;BME280;50122;56.330;43.838;2022-12-18T19:54:06;100805.22;;;-6.28;100.00
63946;BME280;50122;56.330;43.838;2022-12-18T19:56:47;100815.53;;;-6.28;100.00
63946;BME280;50122;56.330;43.838;2022-12-18T19:59:14;100774.56;;;-6.48;99.87
63946;BME280;50122;56.330;43.838;2022-12-18T20:01:46;100819.69;;;-6.32;100.00
63946;BME280;50122;56.330;43.838;2022-12-18T20:04:13;100816.38;;;-6.28;99.90
63946;BME280;50122;56.330;43.838;2022-12-18T20:06:50;100828.38;;;-6.28;99.48
63946;BME280;50122;56.330;43.838;2022-12-18T20:09:19;100818.81;;;-6.32;99.39
63946;BME280;50122;56.330;43.838;2022-12-18T20:11:47;100824.56;;;-6.39;99.22
63946;BME280;50122;56.330;43.838;2022-12-18T20:14:17;100821.97;;;-6.41;99.01
63946;BME280;50122;56.330;43.838;2022-12-18T20:16:48;100837.34;;;-6.42;99.05
63946;BME280;50122;56.330;43.838;2022-12-18T20:19:19;100799.34;;;-6.75;98.89
63946;BME280;50122;56.330;43.838;2022-12-18T20:21:50;100836.34;;;-6.46;98.53
63946;BME280;50122;56.330;43.838;2022-12-18T20:24:20;100845.88;;;-6.43;98.81
63946;BME280;50122;56.330;43.838;2022-12-18T20:26:53;100845.81;;;-6.45;98.48
63946;BME280;50122;56.330;43.838;2022-12-18T20:29:20;100839.72;;;-6.47;98.90
63946;BME280;50122;56.330;43.838;2022-12-18T20:31:46;100845.06;;;-6.42;98.72
63946;BME280;50122;56.330;43.838;2022-12-18T20:34:13;100847.63;;;-6.42;98.87
63946;BME280;50122;56.330;43.838;2022-12-18T20:36:40;100769.72;;;-6.90;98.42
63946;BME280;50122;56.330;43.838;2022-12-18T20:39:07;100855.25;;;-6.46;98.09
63946;BME280;50122;56.330;43.838;2022-12-18T20:41:36;100861.09;;;-6.50;98.36
63946;BME280;50122;56.330;43.838;2022-12-18T20:44:12;100835.69;;;-6.65;98.41
63946;BME280;50122;56.330;43.838;2022-12-18T20:46:52;100867.84;;;-6.52;97.96
63946;BME280;50122;56.330;43.838;2022-12-18T20:49:19;100867.81;;;-6.53;98.11
63946;BME280;50122;56.330;43.838;2022-12-18T20:51:49;100878.09;;;-6.53;98.23
63946;BME280;50122;56.330;43.838;2022-12-18T20:54:16;100887.63;;;-6.51;98.20
63946;BME280;50122;56.330;43.838;2022-12-18T20:56:43;100879.91;;;-6.51;97.94
63946;BME280;50122;56.330;43.838;2022-12-18T20:59:09;100878.19;;;-6.50;98.13
63946;BME280;50122;56.330;43.838;2022-12-18T21:01:36;100889.19;;;-6.54;98.50
63946;BME280;50122;56.330;43.838;2022-12-18T21:04:09;100898.72;;;-6.52;98.35
63946;BME280;50122;56.330;43.838;2022-12-18T21:06:36;100902.00;;;-6.56;98.05
63946;BME280;50122;56.330;43.838;2022-12-18T21:09:03;100892.31;;;-6.63;97.85
63946;BME280;50122;56.330;43.838;2022-12-18T21:11:32;100908.78;;;-6.58;97.98
63946;BME280;50122;56.330;43.838;2022-12-18T21:14:20;100892.22;;;-6.66;97.62
63946;BME280;50122;56.330;43.838;2022-12-18T21:16:48;100908.69;;;-6.61;97.71
63946;BME280;50122;56.330;43.838;2022-12-18T21:19:17;100896.50;;;-6.67;97.99
63946;BME280;50122;56.330;43.838;2022-12-18T21:21:44;100915.69;;;-6.57;98.14
63946;BME280;50122;56.330;43.838;2022-12-18T21:24:12;100912.13;;;-6.60;97.97
63946;BME280;50122;56.330;43.838;2022-12-18T21:26:42;100915.69;;;-6.57;97.60
63946;BME280;50122;56.330;43.838;2022-12-18T21:29:14;100916.50;;;-6.58;97.48
63946;BME280;50122;56.330;43.838;2022-12-18T21:31:44;100911.75;;;-6.71;97.67
63946;BME280;50122;56.330;43.838;2022-12-18T21:34:15;100924.13;;;-6.61;97.62
63946;BME280;50122;56.330;43.838;2022-12-18T21:36:43;100916.94;;;-6.70;97.68
63946;BME280;50122;56.330;43.838;2022-12-18T21:39:12;100920.53;;;-6.65;97.58
63946;BME280;50122;56.330;43.838;2022-12-18T21:41:41;100923.16;;;-6.63;97.34
63946;BME280;50122;56.330;43.838;2022-12-18T21:44:27;100942.88;;;-6.64;97.40
63946;BME280;50122;56.330;43.838;2022-12-18T21:46:54;100935.81;;;-6.69;97.93
63946;BME280;50122;56.330;43.838;2022-12-18T21:49:37;100947.09;;;-6.66;97.57
63946;BME280;50122;56.330;43.838;2022-12-18T21:52:04;100941.06;;;-6.66;97.53
63946;BME280;50122;56.330;43.838;2022-12-18T21:54:31;100942.59;;;-6.71;97.50
63946;BME280;50122;56.330;43.838;2022-12-18T21:57:00;100941.81;;;-6.69;97.45
63946;BME280;50122;56.330;43.838;2022-12-18T21:59:28;100951.28;;;-6.68;97.76
63946;BME280;50122;56.330;43.838;2022-12-18T22:01:58;100960.72;;;-6.68;97.30
63946;BME280;50122;56.330;43.838;2022-12-18T22:04:25;100962.38;;;-6.69;97.32
63946;BME280;50122;56.330;43.838;2022-12-18T22:06:53;100928.47;;;-6.83;97.40
63946;BME280;50122;56.330;43.838;2022-12-18T22:09:22;100947.28;;;-6.84;97.32
63946;BME280;50122;56.330;43.838;2022-12-18T22:11:50;100964.63;;;-6.78;96.74
63946;BME280;50122;56.330;43.838;2022-12-18T22:14:16;100960.13;;;-6.84;96.93
63946;BME280;50122;56.330;43.838;2022-12-18T22:16:43;100966.97;;;-6.84;97.06
63946;BME280;50122;56.330;43.838;2022-12-18T22:19:11;100979.75;;;-6.86;97.20
63946;BME280;50122;56.330;43.838;2022-12-18T22:21:42;100976.94;;;-6.92;96.90
63946;BME280;50122;56.330;43.838;2022-12-18T22:24:21;100981.22;;;-6.92;97.05
63946;BME280;50122;56.330;43.838;2022-12-18T22:26:50;100989.66;;;-6.95;97.17
63946;BME280;50122;56.330;43.838;2022-12-18T22:29:23;100990.47;;;-6.97;96.67
63946;BME280;50122;56.330;43.838;2022-12-18T22:32:16;101004.81;;;-7.03;96.61
63946;BME280;50122;56.330;43.838;2022-12-18T22:34:56;101011.72;;;-7.02;96.58
63946;BME280;50122;56.330;43.838;2022-12-18T22:37:32;101003.88;;;-7.05;96.59
63946;BME280;50122;56.330;43.838;2022-12-18T22:39:59;101013.22;;;-7.07;96.20
63946;BME280;50122;56.330;43.838;2022-12-18T22:42:29;101012.97;;;-7.13;96.65
63946;BME280;50122;56.330;43.838;2022-12-18T22:44:58;101027.69;;;-7.09;96.92
63946;BME280;50122;56.330;43.838;2022-12-18T22:47:27;101029.44;;;-7.08;96.71
63946;BME280;50122;56.330;43.838;2022-12-18T22:49:56;101037.13;;;-7.08;96.71
63946;BME280;50122;56.330;43.838;2022-12-18T22:52:23;101028.63;;;-7.07;96.89
63946;BME280;50122;56.330;43.838;2022-12-18T22:54:51;101035.63;;;-7.03;96.83
63946;BME280;50122;56.330;43.838;2022-12-18T22:57:19;101034.78;;;-7.03;96.78
63946;BME280;50122;56.330;43.838;2022-12-18T22:59:45;101045.06;;;-7.03;97.10
63946;BME280;50122;56.330;43.838;2022-12-18T23:02:13;101036.38;;;-7.05;96.98
63946;BME280;50122;56.330;43.838;2022-12-18T23:04:40;101042.31;;;-7.06;96.47
63946;BME280;50122;56.330;43.838;2022-12-18T23:07:06;101045.16;;;-7.00;96.80
63946;BME280;50122;56.330;43.838;2022-12-18T23:09:36;101052.03;;;-6.99;96.52
63946;BME280;50122;56.330;43.838;2022-12-18T23:12:03;101045.22;;;-6.99;96.83
63946;BME280;50122;56.330;43.838;2022-12-18T23:14:30;101048.59;;;-7.00;96.64
63946;BME280;50122;56.330;43.838;2022-12-18T23:16:57;101056.31;;;-7.00;96.74
63946;BME280;50122;56.330;43.838;2022-12-18T23:19:23;101058.66;;;-7.06;96.55
63946;BME280;50122;56.330;43.838;2022-12-18T23:21:50;101039.63;;;-7.32;96.85
63946;BME280;50122;56.330;43.838;2022-12-18T23:24:20;101062.25;;;-7.01;96.67
63946;BME280;50122;56.330;43.838;2022-12-18T23:26:46;101022.56;;;-7.30;96.68
63946;BME280;50122;56.330;43.838;2022-12-18T23:29:13;101075.81;;;-7.05;96.92
63946;BME280;50122;56.330;43.838;2022-12-18T23:31:40;101089.53;;;-7.04;96.64
63946;BME280;50122;56.330;43.838;2022-12-18T23:34:11;101070.59;;;-7.06;96.39
63946;BME280;50122;56.330;43.838;2022-12-18T23:36:38;101035.97;;;-7.37;96.91
63946;BME280;50122;56.330;43.838;2022-12-18T23:39:12;101082.56;;;-7.07;96.94
63946;BME280;50122;56.330;43.838;2022-12-18T23:41:54;101084.00;;;-7.13;96.78
63946;BME280;50122;56.330;43.838;2022-12-18T23:44:21;101086.84;;;-7.07;96.82
63946;BME280;50122;56.330;43.838;2022-12-18T23:46:48;101087.59;;;-7.10;96.90
63946;BME280;50122;56.330;43.838;2022-12-18T23:49:15;101096.28;;;-7.06;96.90
63946;BME280;50122;56.330;43.838;2022-12-18T23:51:44;101113.41;;;-7.07;96.47
63946;BME280;50122;56.330;43.838;2022-12-18T23:54:10;101094.38;;;-7.12;96.82
63946;BME280;50122;56.330;43.838;2022-12-18T23:56:37;101103.88;;;-7.09;96.95
63946;BME280;50122;56.330;43.838;2022-12-18T23:59:04;101060.09;;;-7.34;96.55
